createdAt,value
2023-02-19T00:02:12.210Z,91.02
2023-02-19T00:07:16.587Z,90.91
2023-02-19T00:12:20.517Z,90.92
2023-02-19T00:17:24.292Z,91.05
2023-02-19T00:22:30.952Z,91.16
2023-02-19T00:27:34.787Z,91.01
2023-02-19T00:32:38.532Z,91.05
2023-02-19T00:37:42.374Z,91.09
2023-02-19T00:42:46.717Z,91.18
2023-02-19T00:47:53.851Z,91.21
2023-02-19T00:52:57.497Z,91.35
2023-02-19T00:58:01.465Z,91.42
2023-02-19T01:03:06.330Z,91.56
2023-02-19T01:08:10.129Z,91.70
2023-02-19T01:13:13.926Z,91.79
2023-02-19T01:18:17.625Z,91.98
2023-02-19T01:23:21.698Z,92.31
2023-02-19T01:28:25.554Z,92.42
2023-02-19T01:33:32.752Z,92.15
2023-02-19T01:38:36.524Z,92.03
2023-02-19T01:44:01.974Z,92.28
2023-02-19T01:49:11.301Z,92.35
2023-02-19T01:54:18.398Z,92.12
2023-02-19T01:59:22.381Z,92.23
2023-02-19T02:04:26.610Z,92.56
2023-02-19T02:09:50.425Z,92.82
2023-02-19T02:14:54.286Z,92.47
2023-02-19T02:20:16.997Z,92.55
2023-02-19T02:25:32.873Z,92.17
2023-02-19T02:31:00.215Z,92.17
2023-02-19T02:36:08.262Z,92.24
2023-02-19T02:41:14.803Z,92.33
2023-02-19T02:46:29.072Z,92.41
2023-02-19T02:51:40.792Z,92.45
2023-02-19T02:56:51.235Z,92.52
2023-02-19T03:02:12.648Z,92.64
2023-02-19T03:07:16.851Z,92.76
2023-02-19T03:12:43.341Z,92.73
2023-02-19T03:18:12.338Z,92.85
2023-02-19T03:23:18.202Z,92.92
2023-02-19T03:28:45.229Z,92.95
2023-02-19T03:34:00.174Z,93.06
2023-02-19T03:39:06.607Z,93.23
2023-02-19T03:44:21.747Z,93.22
2023-02-19T03:49:33.255Z,93.16
2023-02-19T03:54:51.497Z,93.48
2023-02-19T04:00:16.502Z,93.23
2023-02-19T04:05:25.224Z,93.07
2023-02-19T04:10:30.497Z,93.03
2023-02-19T04:15:37.111Z,93.06
2023-02-19T04:20:45.338Z,93.04
2023-02-19T04:25:52.541Z,93.11
2023-02-19T04:31:02.280Z,93.16
2023-02-19T04:36:10.162Z,93.22
2023-02-19T04:41:14.126Z,93.21
2023-02-19T04:46:20.903Z,93.22
2023-02-19T04:51:24.849Z,93.40
2023-02-19T04:56:28.680Z,93.73
2023-02-19T05:01:32.423Z,94.07
2023-02-19T05:06:36.493Z,94.29
2023-02-19T05:11:40.309Z,94.29
2023-02-19T05:16:44.098Z,94.33
2023-02-19T05:21:48.532Z,94.39
2023-02-19T05:26:55.466Z,94.41
2023-02-19T05:31:59.312Z,94.43
2023-02-19T05:37:03.340Z,94.44
2023-02-19T05:42:07.187Z,94.47
2023-02-19T05:47:11.106Z,94.41
2023-02-19T05:52:15.120Z,94.36
2023-02-19T05:57:20.776Z,94.42
2023-02-19T06:02:24.850Z,94.48
2023-02-19T06:07:29.033Z,94.50
2023-02-19T06:12:38.424Z,94.50
2023-02-19T06:17:42.342Z,94.49
2023-02-19T06:22:46.136Z,94.61
2023-02-19T06:27:59.178Z,94.66
2023-02-19T06:33:04.452Z,94.55
2023-02-19T06:38:15.233Z,93.95
2023-02-19T06:43:19.213Z,93.72
2023-02-19T06:48:23.487Z,93.51
2023-02-19T06:53:28.195Z,93.11
2023-02-19T06:58:32.989Z,92.72
2023-02-19T07:03:37.480Z,92.67
2023-02-19T07:08:41.601Z,92.84
2023-02-19T07:13:45.415Z,92.88
2023-02-19T07:19:00.362Z,92.86
2023-02-19T07:24:08.250Z,92.14
2023-02-19T07:29:12.166Z,91.65
2023-02-19T07:34:16.156Z,91.25
2023-02-19T07:39:20.312Z,91.30
2023-02-19T07:44:29.522Z,91.05
2023-02-19T07:49:34.370Z,91.20
2023-02-19T07:54:41.137Z,91.49
2023-02-19T07:59:44.838Z,90.81
2023-02-19T08:04:48.873Z,90.34
2023-02-19T08:10:12.560Z,90.19
2023-02-19T08:15:16.671Z,90.54
2023-02-19T08:20:23.235Z,90.62
2023-02-19T08:25:27.096Z,90.76
2023-02-19T08:30:32.511Z,91.11
2023-02-19T08:35:37.025Z,91.16
2023-02-19T08:40:41.481Z,91.30
2023-02-19T08:45:48.269Z,91.78
2023-02-19T08:51:09.248Z,92.06
2023-02-19T08:56:17.830Z,92.07
2023-02-19T09:01:25.118Z,92.12
2023-02-19T09:06:29.231Z,92.02
2023-02-19T09:11:36.013Z,91.60
2023-02-19T09:16:44.939Z,91.66
2023-02-19T09:21:48.765Z,91.90
2023-02-19T09:26:57.638Z,89.91
2023-02-19T09:32:05.065Z,88.82
2023-02-19T09:37:11.342Z,89.12
2023-02-19T09:42:34.484Z,88.80
2023-02-19T09:47:46.394Z,87.86
2023-02-19T09:53:04.385Z,87.22
2023-02-19T09:58:42.387Z,88.13
2023-02-19T10:03:51.508Z,86.89
2023-02-19T10:09:40.469Z,86.25
2023-02-19T10:14:49.913Z,85.52
2023-02-19T10:19:54.484Z,83.64
2023-02-19T10:24:59.282Z,83.82
2023-02-19T10:30:04.033Z,82.60
2023-02-19T10:35:09.576Z,81.58
2023-02-19T10:40:18.228Z,81.52
2023-02-19T10:45:40.180Z,81.68
2023-02-19T10:50:50.052Z,79.95
2023-02-19T10:56:17.622Z,79.70
2023-02-19T11:01:28.980Z,79.00
2023-02-19T11:06:34.955Z,79.16
2023-02-19T11:11:44.592Z,79.14
2023-02-19T11:17:12.509Z,79.16
2023-02-19T11:22:37.013Z,77.84
2023-02-19T11:28:09.997Z,77.83
2023-02-19T11:33:38.391Z,78.34
2023-02-19T11:38:43.253Z,77.88
2023-02-19T11:44:00.355Z,77.30
2023-02-19T11:49:25.001Z,77.18
2023-02-19T11:54:45.306Z,77.44
2023-02-19T12:00:04.834Z,77.04
2023-02-19T12:05:43.036Z,73.84
2023-02-19T12:11:26.832Z,73.80
2023-02-19T12:16:52.859Z,73.48
2023-02-19T12:22:22.645Z,69.18
2023-02-19T12:27:52.218Z,67.83
2023-02-19T12:33:01.470Z,67.69
2023-02-19T12:38:20.965Z,68.67
2023-02-19T12:43:27.644Z,68.56
2023-02-19T12:48:50.264Z,68.54
2023-02-19T12:54:04.202Z,68.25
2023-02-19T12:59:19.825Z,68.26
2023-02-19T13:04:45.458Z,67.02
2023-02-19T13:10:23.740Z,67.64
2023-02-19T13:15:42.314Z,66.92
2023-02-19T13:20:48.430Z,67.96
2023-02-19T13:26:24.501Z,66.46
2023-02-19T13:32:06.594Z,66.27
2023-02-19T13:37:14.216Z,64.91
2023-02-19T13:42:41.797Z,65.08
2023-02-19T13:48:29.601Z,65.60
2023-02-19T13:53:44.169Z,62.62
2023-02-19T13:58:56.288Z,61.85
2023-02-19T14:04:13.163Z,62.16
2023-02-19T14:09:45.560Z,62.52
2023-02-19T14:14:52.710Z,63.92
2023-02-19T14:20:39.077Z,65.08
2023-02-19T14:26:08.187Z,65.06
2023-02-19T14:31:25.239Z,64.66
2023-02-19T14:36:34.091Z,63.42
2023-02-19T14:41:41.876Z,64.28
2023-02-19T14:47:18.861Z,64.06
2023-02-19T14:52:29.308Z,64.62
2023-02-19T14:57:57.805Z,64.98
2023-02-19T15:03:08.517Z,64.59
2023-02-19T15:08:22.001Z,65.04
2023-02-19T15:13:35.481Z,65.87
2023-02-19T15:18:49.523Z,66.19
2023-02-19T15:24:09.551Z,66.94
2023-02-19T15:29:28.292Z,67.76
2023-02-19T15:34:50.563Z,67.06
2023-02-19T15:40:10.906Z,67.76
2023-02-19T15:45:41.228Z,68.04
2023-02-19T15:50:55.196Z,68.62
2023-02-19T15:56:38.112Z,69.27
2023-02-19T16:01:50.659Z,69.47
2023-02-19T16:07:22.134Z,69.75
2023-02-19T16:12:36.885Z,70.05
2023-02-19T16:17:50.509Z,70.87
2023-02-19T16:23:04.126Z,71.64
2023-02-19T16:28:22.784Z,72.56
2023-02-19T16:33:58.520Z,72.42
2023-02-19T16:39:17.511Z,72.06
2023-02-19T16:44:37.158Z,72.07
2023-02-19T16:50:05.383Z,72.34
2023-02-19T16:55:16.120Z,72.68
2023-02-19T17:00:35.480Z,72.98
2023-02-19T17:05:45.827Z,73.01
2023-02-19T17:10:56.132Z,73.39
2023-02-19T17:16:05.192Z,72.98
2023-02-19T17:21:22.991Z,72.74
2023-02-19T17:26:44.722Z,72.63
2023-02-19T17:31:57.928Z,72.71
2023-02-19T17:37:07.526Z,73.14
2023-02-19T17:42:26.521Z,73.26
2023-02-19T17:47:42.039Z,74.38
2023-02-19T17:52:48.624Z,74.67
2023-02-19T17:57:55.345Z,74.77
2023-02-19T18:03:02.385Z,75.13
2023-02-19T18:08:10.425Z,75.34
2023-02-19T18:13:17.306Z,75.57
2023-02-19T18:18:29.537Z,75.58
2023-02-19T18:23:35.657Z,75.46
2023-02-19T18:28:44.762Z,75.40
2023-02-19T18:34:01.014Z,75.20
2023-02-19T18:39:08.568Z,74.89
2023-02-19T18:44:25.121Z,74.50
2023-02-19T18:49:34.317Z,74.48
2023-02-19T18:54:42.332Z,74.73
2023-02-19T18:59:59.533Z,75.04
2023-02-19T19:05:08.231Z,75.53
2023-02-19T19:10:20.099Z,76.08
2023-02-19T19:15:27.084Z,76.49
2023-02-19T19:20:35.869Z,76.93
2023-02-19T19:25:42.000Z,77.18
2023-02-19T19:30:48.563Z,77.42
2023-02-19T19:35:56.446Z,77.76
2023-02-19T19:41:07.210Z,78.09
2023-02-19T19:46:13.431Z,78.45
2023-02-19T19:51:21.261Z,78.92
2023-02-19T19:56:26.854Z,79.29
2023-02-19T20:01:33.186Z,79.50
2023-02-19T20:06:39.428Z,79.65
2023-02-19T20:11:50.161Z,79.69
2023-02-19T20:16:57.511Z,79.80
2023-02-19T20:22:07.295Z,79.96
2023-02-19T20:27:12.594Z,80.52
2023-02-19T20:32:22.873Z,80.76
2023-02-19T20:37:29.606Z,80.76
2023-02-19T20:42:34.854Z,80.81
2023-02-19T20:47:41.626Z,80.98
2023-02-19T20:52:51.456Z,81.04
2023-02-19T20:57:56.944Z,80.93
2023-02-19T21:03:03.058Z,81.14
2023-02-19T21:08:09.447Z,80.93
2023-02-19T21:13:18.161Z,81.02
2023-02-19T21:18:25.516Z,81.54
2023-02-19T21:23:32.564Z,83.59
2023-02-19T21:28:43.475Z,84.31
2023-02-19T21:33:48.158Z,84.22
2023-02-19T21:38:54.045Z,83.82
2023-02-19T21:43:59.401Z,83.54
2023-02-19T21:49:04.868Z,83.38
2023-02-19T21:54:09.940Z,83.31
2023-02-19T21:59:15.249Z,83.28
2023-02-19T22:04:22.681Z,83.30
2023-02-19T22:09:26.677Z,83.17
2023-02-19T22:14:32.192Z,83.45
2023-02-19T22:19:36.312Z,83.72
2023-02-19T22:24:41.573Z,83.98
2023-02-19T22:29:45.533Z,84.01
2023-02-19T22:34:49.305Z,84.08
2023-02-19T22:39:53.254Z,83.98
2023-02-19T22:44:57.065Z,84.12
2023-02-19T22:50:00.859Z,84.91
2023-02-19T22:55:04.967Z,85.87
2023-02-19T23:00:15.932Z,86.05
2023-02-19T23:05:19.776Z,85.56
2023-02-19T23:10:24.538Z,85.75
2023-02-19T23:15:28.272Z,85.38
2023-02-19T23:20:32.253Z,85.24
2023-02-19T23:25:36.128Z,85.37
2023-02-19T23:30:40.267Z,85.39
2023-02-19T23:35:44.500Z,85.06
2023-02-19T23:40:49.131Z,85.32
2023-02-19T23:45:53.101Z,85.67
2023-02-19T23:50:57.098Z,85.67
2023-02-19T23:56:00.892Z,85.31
